Time;durP1;ratioP1;P1;durP2;ratioP2;P2;SDS_P1;SDS_P2;PMS_P1;PMS_P2;Temp;Humidity;BMP_temperature;BMP_pressure;BME280_temperature;BME280_humidity;BME280_pressure;Samples;Min_cycle;Max_cycle;Signal;HPM_P1;HPM_P2
2023/07/26 00:02:10;;;;;;;2.13;0.57;;;15.80;99.90;;;;;;4970718;28;20456;-71
2023/07/26 00:04:36;;;;;;;0.90;0.32;;;15.70;99.90;;;;;;4971663;28;20555;-71
2023/07/26 00:07:01;;;;;;;0.82;0.30;;;15.60;99.90;;;;;;4972765;28;20027;-71
2023/07/26 00:09:27;;;;;;;1.20;0.47;;;15.70;99.90;;;;;;4973702;28;20031;-71
2023/07/26 00:11:53;;;;;;;1.02;0.30;;;15.80;99.90;;;;;;4972121;28;20130;-71
2023/07/26 00:14:18;;;;;;;0.95;0.40;;;15.90;99.90;;;;;;4980290;28;20034;-71
2023/07/26 00:16:44;;;;;;;1.58;0.60;;;16.10;99.90;;;;;;4975364;28;20042;-71
2023/07/26 00:19:10;;;;;;;1.48;0.77;;;16.30;99.90;;;;;;4980274;28;20046;-71
2023/07/26 00:21:36;;;;;;;1.40;0.28;;;16.40;99.90;;;;;;4983244;28;20041;-70
2023/07/26 00:24:02;;;;;;;3.38;0.98;;;16.20;99.90;;;;;;4972762;28;20038;-71
2023/07/26 00:26:28;;;;;;;1.38;0.50;;;16.20;99.90;;;;;;4986397;28;20492;-71
2023/07/26 00:28:53;;;;;;;1.48;0.63;;;16.30;99.90;;;;;;4974218;28;20038;-71
2023/07/26 00:31:19;;;;;;;2.03;0.70;;;16.40;99.90;;;;;;4974145;28;20035;-71
2023/07/26 00:33:45;;;;;;;1.63;0.45;;;16.40;99.90;;;;;;4971864;28;20042;-71
2023/07/26 00:36:10;;;;;;;1.27;0.50;;;16.30;99.90;;;;;;4982366;28;20033;-71
2023/07/26 00:38:36;;;;;;;1.73;0.60;;;16.20;99.90;;;;;;4975303;28;20023;-71
2023/07/26 00:41:02;;;;;;;2.35;0.60;;;16.20;99.90;;;;;;4977718;28;20391;-71
2023/07/26 00:43:27;;;;;;;1.70;0.47;;;16.20;99.90;;;;;;4976635;28;20126;-71
2023/07/26 00:45:53;;;;;;;3.55;0.60;;;16.20;99.90;;;;;;4976136;28;20433;-71
2023/07/26 00:48:19;;;;;;;2.95;0.68;;;16.20;99.90;;;;;;4981591;28;20038;-71
2023/07/26 00:50:47;;;;;;;2.22;0.35;;;16.30;99.90;;;;;;4977874;28;20044;-71
2023/07/26 00:53:14;;;;;;;0.65;0.30;;;16.20;99.90;;;;;;4986276;28;20392;-71
2023/07/26 00:55:42;;;;;;;3.65;0.70;;;16.20;99.90;;;;;;4974344;28;20081;-71
2023/07/26 00:58:09;;;;;;;2.45;0.50;;;16.20;99.90;;;;;;4972285;28;20097;-71
2023/07/26 01:00:40;;;;;;;5.78;0.80;;;16.20;99.90;;;;;;4978530;28;20038;-71
2023/07/26 01:03:06;;;;;;;3.33;0.80;;;16.50;99.90;;;;;;4971529;28;20023;-71
2023/07/26 01:05:39;;;;;;;1.67;0.45;;;16.90;99.90;;;;;;4973666;28;20125;-71
2023/07/26 01:08:13;;;;;;;3.00;0.60;;;17.00;99.90;;;;;;4979800;28;20425;-71
2023/07/26 01:10:53;;;;;;;2.40;0.70;;;16.80;99.90;;;;;;4979644;28;20046;-71
2023/07/26 01:13:22;;;;;;;1.50;0.60;;;16.70;99.90;;;;;;4974889;28;20389;-71
2023/07/26 01:15:49;;;;;;;7.15;1.10;;;16.40;99.90;;;;;;4980163;28;20082;-71
2023/07/26 01:18:16;;;;;;;0.22;0.08;;;16.10;99.90;;;;;;4975063;28;20178;-71
2023/07/26 01:20:42;;;;;;;2.15;0.70;;;16.20;99.90;;;;;;4980060;28;20033;-71
2023/07/26 01:23:08;;;;;;;2.33;0.30;;;16.10;99.90;;;;;;4973007;28;20121;-71
2023/07/26 01:25:34;;;;;;;13.82;0.95;;;16.10;99.90;;;;;;4981978;28;20137;-71
2023/07/26 01:28:00;;;;;;;2.25;0.52;;;16.30;99.90;;;;;;4973098;28;20022;-70
2023/07/26 01:30:32;;;;;;;2.53;0.60;;;16.30;99.90;;;;;;4977513;28;20038;-71
2023/07/26 01:33:05;;;;;;;3.15;1.10;;;15.90;99.90;;;;;;4981125;28;20403;-71
2023/07/26 01:35:31;;;;;;;3.20;0.40;;;15.80;99.90;;;;;;4977593;28;20033;-70
2023/07/26 01:37:58;;;;;;;1.88;0.55;;;15.90;99.90;;;;;;4979142;28;20384;-71
2023/07/26 01:40:24;;;;;;;3.72;0.40;;;15.90;99.90;;;;;;4978769;28;20035;-71
2023/07/26 01:42:52;;;;;;;1.17;0.50;;;16.10;99.90;;;;;;4977282;28;20082;-71
2023/07/26 01:45:18;;;;;;;2.15;0.52;;;16.30;99.90;;;;;;4972060;28;20042;-71
2023/07/26 01:47:43;;;;;;;2.25;0.63;;;16.50;99.90;;;;;;4972237;28;20027;-71
2023/07/26 01:50:10;;;;;;;2.63;0.52;;;16.50;99.90;;;;;;4972722;28;20038;-71
2023/07/26 01:52:35;;;;;;;0.73;0.30;;;16.40;99.90;;;;;;4975295;28;20030;-71
2023/07/26 01:55:01;;;;;;;1.10;0.32;;;16.40;99.90;;;;;;4978049;28;20035;-71
2023/07/26 01:57:27;;;;;;;1.75;0.50;;;16.50;99.90;;;;;;4971400;28;20069;-71
2023/07/26 01:59:53;;;;;;;2.65;0.43;;;16.40;99.90;;;;;;4972520;28;20070;-71
2023/07/26 02:02:20;;;;;;;3.72;0.38;;;16.40;99.90;;;;;;4977140;28;20113;-70
2023/07/26 02:04:46;;;;;;;1.92;0.52;;;16.50;99.90;;;;;;4973354;28;20102;-71
2023/07/26 02:07:12;;;;;;;1.77;0.50;;;16.40;99.90;;;;;;4973500;28;20734;-71
2023/07/26 02:09:38;;;;;;;1.92;0.38;;;16.40;99.90;;;;;;4976104;28;20068;-71
2023/07/26 02:12:04;;;;;;;8.88;0.63;;;16.30;99.90;;;;;;4977845;28;20046;-71
2023/07/26 02:14:30;;;;;;;0.68;0.30;;;16.20;99.90;;;;;;4972124;28;20031;-71
2023/07/26 02:16:56;;;;;;;3.05;0.40;;;16.00;99.90;;;;;;4970292;28;20456;-71
2023/07/26 02:19:22;;;;;;;1.20;0.50;;;16.10;99.90;;;;;;4973079;28;20030;-71
2023/07/26 02:21:47;;;;;;;2.45;0.68;;;16.00;99.90;;;;;;4972247;28;20496;-71
2023/07/26 02:24:13;;;;;;;2.08;0.65;;;15.90;99.90;;;;;;4974184;28;20065;-71
2023/07/26 02:26:39;;;;;;;1.77;0.77;;;15.80;99.90;;;;;;4983109;28;20580;-71
2023/07/26 02:29:05;;;;;;;1.55;0.73;;;15.60;99.90;;;;;;4976477;28;20501;-71
2023/07/26 02:31:30;;;;;;;3.40;0.63;;;15.40;99.90;;;;;;4982310;28;20038;-71
2023/07/26 02:33:56;;;;;;;1.08;0.50;;;15.40;99.90;;;;;;4978792;28;20428;-71
2023/07/26 02:36:22;;;;;;;1.13;0.50;;;15.40;99.90;;;;;;4969487;28;20026;-71
2023/07/26 02:38:47;;;;;;;0.90;0.40;;;15.60;99.90;;;;;;4970475;28;20039;-71
2023/07/26 02:41:13;;;;;;;1.63;0.60;;;15.60;99.90;;;;;;4977590;28;20054;-71
2023/07/26 02:43:39;;;;;;;1.88;0.50;;;15.30;99.90;;;;;;4976377;28;20074;-71
2023/07/26 02:46:04;;;;;;;2.25;0.38;;;15.60;99.90;;;;;;4977901;28;20037;-71
2023/07/26 02:48:30;;;;;;;2.75;0.40;;;15.80;99.90;;;;;;4977882;28;20023;-71
2023/07/26 02:50:56;;;;;;;1.00;0.50;;;15.70;99.90;;;;;;4969386;28;20027;-71
2023/07/26 02:53:22;;;;;;;1.67;0.40;;;15.80;99.90;;;;;;4971680;28;20162;-71
2023/07/26 02:55:49;;;;;;;2.42;0.35;;;15.60;99.90;;;;;;4982305;28;20054;-70
2023/07/26 02:58:15;;;;;;;1.88;0.45;;;15.50;99.90;;;;;;4974546;28;20493;-71
2023/07/26 03:00:40;;;;;;;2.60;0.50;;;15.50;99.90;;;;;;4977921;28;20395;-70
2023/07/26 03:03:06;;;;;;;5.10;0.40;;;15.30;99.90;;;;;;4969956;28;20436;-70
2023/07/26 03:05:33;;;;;;;1.92;0.50;;;15.40;99.90;;;;;;4979137;28;20544;-70
2023/07/26 03:07:59;;;;;;;2.53;0.73;;;15.70;99.90;;;;;;4968029;28;20033;-70
2023/07/26 03:10:24;;;;;;;2.10;0.60;;;16.00;99.90;;;;;;4976978;28;20050;-70
2023/07/26 03:12:50;;;;;;;1.95;0.60;;;16.00;99.90;;;;;;4973479;28;20053;-69
2023/07/26 03:15:16;;;;;;;2.17;0.38;;;15.90;99.90;;;;;;4971178;28;20034;-70
2023/07/26 03:17:41;;;;;;;3.08;0.55;;;15.90;99.90;;;;;;4969971;28;20081;-70
2023/07/26 03:20:08;;;;;;;1.70;0.63;;;15.80;99.90;;;;;;4965515;28;20105;-69
2023/07/26 03:22:34;;;;;;;1.45;0.77;;;15.80;99.90;;;;;;4963278;28;20051;-71
2023/07/26 03:25:00;;;;;;;1.15;0.45;;;15.90;99.90;;;;;;4971160;28;20070;-71
2023/07/26 03:27:25;;;;;;;1.65;0.43;;;16.10;99.90;;;;;;4971587;28;20131;-71
2023/07/26 03:29:51;;;;;;;0.65;0.17;;;16.10;99.90;;;;;;4965275;28;20465;-70
2023/07/26 03:32:16;;;;;;;1.20;0.40;;;16.00;99.90;;;;;;4963924;28;20683;-70
2023/07/26 03:34:42;;;;;;;1.58;0.50;;;16.00;99.90;;;;;;4965795;28;20147;-71
2023/07/26 03:37:08;;;;;;;3.08;0.75;;;15.80;99.90;;;;;;4968991;28;20042;-70
2023/07/26 03:39:34;;;;;;;1.30;0.40;;;15.70;99.90;;;;;;4976923;28;20089;-71
2023/07/26 03:42:00;;;;;;;1.25;0.47;;;15.50;99.90;;;;;;4978010;28;20558;-71
2023/07/26 03:44:26;;;;;;;3.45;0.40;;;15.30;99.90;;;;;;4976118;28;20038;-70
2023/07/26 03:46:51;;;;;;;2.30;0.63;;;15.30;99.90;;;;;;4970959;28;20050;-72
2023/07/26 03:49:17;;;;;;;1.33;0.50;;;15.40;99.90;;;;;;4974937;28;20039;-70
2023/07/26 03:51:43;;;;;;;7.95;0.55;;;15.40;99.90;;;;;;4970292;28;20478;-70
2023/07/26 03:54:09;;;;;;;1.67;0.63;;;15.40;99.90;;;;;;4973516;28;20062;-70
2023/07/26 03:56:34;;;;;;;1.08;0.40;;;15.50;99.90;;;;;;4972076;28;20061;-71
2023/07/26 03:59:00;;;;;;;1.95;0.82;;;15.30;99.90;;;;;;4977719;28;20502;-70
2023/07/26 04:01:26;;;;;;;0.77;0.35;;;15.20;99.90;;;;;;4977695;28;20395;-70
2023/07/26 04:03:51;;;;;;;2.33;0.50;;;15.00;99.90;;;;;;4972535;28;20639;-70
2023/07/26 04:06:17;;;;;;;2.50;0.80;;;14.90;99.90;;;;;;4969198;28;20027;-70
2023/07/26 04:08:43;;;;;;;5.13;1.27;;;15.00;99.90;;;;;;4960083;28;20034;-70
2023/07/26 04:11:08;;;;;;;1.90;0.70;;;14.90;99.90;;;;;;4980974;28;20054;-70
2023/07/26 04:13:34;;;;;;;1.73;0.45;;;14.90;99.90;;;;;;4976933;28;20049;-70
2023/07/26 04:16:00;;;;;;;1.38;0.50;;;15.00;99.90;;;;;;4972243;28;20039;-71
2023/07/26 04:18:26;;;;;;;1.02;0.40;;;14.90;99.90;;;;;;4982257;28;20038;-72
2023/07/26 04:20:54;;;;;;;2.63;0.63;;;15.00;99.90;;;;;;4975708;28;20441;-72
2023/07/26 04:23:20;;;;;;;1.00;0.38;;;14.90;99.90;;;;;;4971761;28;20179;-72
2023/07/26 04:25:50;;;;;;;2.30;0.50;;;14.90;99.90;;;;;;4978361;28;20119;-72
2023/07/26 04:28:15;;;;;;;1.42;0.40;;;15.00;99.90;;;;;;4976624;28;20500;-71
2023/07/26 04:30:41;;;;;;;1.75;0.60;;;15.10;99.90;;;;;;4975719;28;20042;-72
2023/07/26 04:33:07;;;;;;;1.45;0.45;;;15.00;99.90;;;;;;4978285;28;20038;-72
2023/07/26 04:35:32;;;;;;;2.72;0.60;;;15.00;99.90;;;;;;4984803;28;20057;-72
2023/07/26 04:37:58;;;;;;;4.68;0.57;;;14.90;99.90;;;;;;4973611;28;20515;-71
2023/07/26 04:40:23;;;;;;;2.60;0.75;;;14.90;99.90;;;;;;4975997;28;20043;-73
2023/07/26 04:42:49;;;;;;;3.72;0.50;;;15.00;99.90;;;;;;4978873;28;20029;-71
2023/07/26 04:45:15;;;;;;;1.08;0.35;;;15.20;99.90;;;;;;4974024;28;20167;-71
2023/07/26 04:47:40;;;;;;;1.63;0.70;;;15.00;99.90;;;;;;4975604;28;20042;-71
2023/07/26 04:50:06;;;;;;;1.40;0.60;;;14.90;99.90;;;;;;4978387;28;20078;-71
2023/07/26 04:52:37;;;;;;;5.05;0.90;;;14.90;99.90;;;;;;4980143;28;20030;-72
2023/07/26 04:55:04;;;;;;;1.23;0.60;;;14.70;99.90;;;;;;4974072;28;20092;-73
2023/07/26 04:57:30;;;;;;;2.47;0.73;;;14.80;99.90;;;;;;4976521;28;20065;-74
2023/07/26 04:59:55;;;;;;;0.88;0.38;;;14.90;99.90;;;;;;4972516;28;20511;-72
2023/07/26 05:02:21;;;;;;;3.13;0.80;;;14.70;99.90;;;;;;4972419;28;20604;-72
2023/07/26 05:04:47;;;;;;;3.15;0.50;;;14.60;99.90;;;;;;4980238;28;20046;-72
2023/07/26 05:07:12;;;;;;;2.83;0.50;;;14.60;99.90;;;;;;4972594;28;20042;-72
2023/07/26 05:09:38;;;;;;;0.88;0.40;;;14.60;99.90;;;;;;4968260;28;20046;-72
2023/07/26 05:12:04;;;;;;;3.30;0.45;;;14.60;99.90;;;;;;4975041;28;20042;-72
2023/07/26 05:14:30;;;;;;;1.10;0.30;;;14.70;99.90;;;;;;4974536;28;20045;-70
2023/07/26 05:16:55;;;;;;;9.40;0.73;;;14.70;99.90;;;;;;4969980;28;20026;-70
2023/07/26 05:19:21;;;;;;;3.30;0.55;;;14.70;99.90;;;;;;4971600;28;20358;-70
2023/07/26 05:21:46;;;;;;;5.90;0.95;;;14.80;99.90;;;;;;4976397;28;20058;-70
2023/07/26 05:24:12;;;;;;;2.75;0.50;;;14.50;99.90;;;;;;4981998;28;20073;-69
2023/07/26 05:26:38;;;;;;;1.88;0.68;;;14.30;99.90;;;;;;4977043;28;20095;-72
2023/07/26 05:29:03;;;;;;;2.28;0.45;;;14.40;99.90;;;;;;4987270;28;20037;-74
2023/07/26 05:31:29;;;;;;;2.15;0.60;;;14.60;99.90;;;;;;4985506;28;20057;-71
2023/07/26 05:33:55;;;;;;;1.85;0.30;;;14.70;99.90;;;;;;4981761;28;20533;-71
2023/07/26 05:36:20;;;;;;;4.22;0.63;;;14.90;99.90;;;;;;4987570;28;20040;-71
2023/07/26 05:38:46;;;;;;;1.20;0.45;;;15.10;99.90;;;;;;4982797;28;20101;-70
2023/07/26 05:41:12;;;;;;;2.88;0.73;;;15.10;99.90;;;;;;4972278;28;20384;-73
2023/07/26 05:43:37;;;;;;;2.63;0.50;;;14.90;99.90;;;;;;4969421;28;20030;-75
2023/07/26 05:46:03;;;;;;;4.10;0.50;;;14.80;99.90;;;;;;4968807;28;20388;-74
2023/07/26 05:48:30;;;;;;;3.58;0.47;;;14.70;99.90;;;;;;4982225;28;20537;-74
2023/07/26 05:50:55;;;;;;;1.05;0.40;;;14.90;99.90;;;;;;4985239;28;20077;-74
2023/07/26 05:53:21;;;;;;;2.00;0.30;;;15.00;99.90;;;;;;4986985;28;20920;-72
2023/07/26 05:55:46;;;;;;;3.13;0.47;;;14.90;99.90;;;;;;4986889;28;20022;-72
2023/07/26 05:58:12;;;;;;;1.65;0.88;;;15.00;99.90;;;;;;4999224;28;20034;-71
2023/07/26 06:00:38;;;;;;;0.77;0.43;;;15.10;99.90;;;;;;4985770;28;20030;-72
2023/07/26 06:03:03;;;;;;;2.05;0.50;;;15.20;99.90;;;;;;4986402;28;20037;-74
2023/07/26 06:05:29;;;;;;;1.38;0.30;;;15.30;99.90;;;;;;4989330;28;20037;-75
2023/07/26 06:07:55;;;;;;;1.13;0.38;;;15.40;99.90;;;;;;4991380;28;21027;-74
2023/07/26 06:10:20;;;;;;;1.00;0.30;;;15.50;99.90;;;;;;4987642;28;20074;-72
2023/07/26 06:12:46;;;;;;;1.88;0.57;;;15.50;99.90;;;;;;4986599;28;20070;-74
2023/07/26 06:15:12;;;;;;;0.68;0.40;;;15.60;99.90;;;;;;4994230;28;20113;-73
2023/07/26 06:17:38;;;;;;;2.63;0.40;;;15.70;99.90;;;;;;4985929;28;20026;-72
2023/07/26 06:20:05;;;;;;;2.13;0.47;;;15.80;99.90;;;;;;4985969;28;20630;-74
2023/07/26 06:22:30;;;;;;;1.00;0.30;;;15.90;99.90;;;;;;4986495;28;20030;-73
2023/07/26 06:24:56;;;;;;;1.38;0.52;;;15.90;99.90;;;;;;4975904;28;20458;-73
2023/07/26 06:27:23;;;;;;;1.02;0.57;;;16.10;99.90;;;;;;4985024;28;20456;-77
2023/07/26 06:29:48;;;;;;;1.35;0.50;;;16.20;99.90;;;;;;4980910;28;20042;-73
2023/07/26 06:32:14;;;;;;;1.20;0.40;;;16.30;99.90;;;;;;4964597;28;20058;-73
2023/07/26 06:34:40;;;;;;;4.10;0.70;;;16.40;99.90;;;;;;4964667;28;20063;-75
2023/07/26 06:37:05;;;;;;;1.30;0.45;;;16.50;99.90;;;;;;4964238;28;20030;-73
2023/07/26 06:39:31;;;;;;;2.55;0.60;;;16.50;99.90;;;;;;4978398;28;20121;-73
2023/07/26 06:41:56;;;;;;;1.35;0.60;;;16.60;99.90;;;;;;4966304;28;20023;-73
2023/07/26 06:44:22;;;;;;;1.65;0.40;;;16.60;99.90;;;;;;4970554;28;20034;-74
2023/07/26 06:46:48;;;;;;;1.20;0.45;;;16.60;99.90;;;;;;4975597;28;20027;-74
2023/07/26 06:49:14;;;;;;;2.50;0.50;;;16.70;99.90;;;;;;4968558;28;20042;-73
2023/07/26 06:51:39;;;;;;;3.58;0.80;;;16.90;99.90;;;;;;4968803;28;20042;-73
2023/07/26 06:54:05;;;;;;;5.40;0.55;;;17.00;99.90;;;;;;4969604;28;20057;-73
2023/07/26 06:56:31;;;;;;;0.93;0.30;;;17.10;99.90;;;;;;4974941;28;20037;-76
2023/07/26 06:58:56;;;;;;;0.82;0.40;;;17.30;99.90;;;;;;4972198;28;20551;-73
2023/07/26 07:01:22;;;;;;;0.68;0.35;;;17.40;99.90;;;;;;4963786;28;20034;-75
2023/07/26 07:03:48;;;;;;;1.15;0.40;;;17.60;99.90;;;;;;4969328;28;20462;-73
2023/07/26 07:06:14;;;;;;;2.38;0.30;;;17.80;99.90;;;;;;4969758;28;20023;-73
2023/07/26 07:08:40;;;;;;;4.00;0.75;;;18.10;99.90;;;;;;4970677;28;20027;-75
2023/07/26 07:11:06;;;;;;;3.88;0.60;;;18.40;99.90;;;;;;4967124;28;20060;-73
2023/07/26 07:13:36;;;;;;;2.38;0.63;;;18.70;99.90;;;;;;4966347;28;20495;-73
2023/07/26 07:16:03;;;;;;;2.67;0.45;;;19.00;99.90;;;;;;4969850;28;20558;-72
2023/07/26 07:18:30;;;;;;;1.98;0.32;;;19.30;99.90;;;;;;4977701;28;20035;-72
2023/07/26 07:20:57;;;;;;;0.93;0.40;;;19.60;99.90;;;;;;4970725;28;20035;-73
2023/07/26 07:23:24;;;;;;;1.33;0.50;;;19.80;99.90;;;;;;4970315;28;20510;-73
2023/07/26 07:25:50;;;;;;;2.60;0.68;;;20.10;99.90;;;;;;4977869;28;20038;-73
2023/07/26 07:28:16;;;;;;;2.38;0.65;;;20.50;99.90;;;;;;4968551;28;20154;-72
2023/07/26 07:30:41;;;;;;;1.77;0.55;;;21.10;99.90;;;;;;4973145;28;20069;-72
2023/07/26 07:33:07;;;;;;;3.33;0.50;;;22.30;97.80;;;;;;4971553;28;20043;-72
2023/07/26 07:35:33;;;;;;;0.63;0.20;;;23.40;96.90;;;;;;4982348;28;20031;-72
2023/07/26 07:37:58;;;;;;;1.80;0.40;;;24.40;94.40;;;;;;4971917;28;20384;-73
2023/07/26 07:40:24;;;;;;;1.13;0.30;;;25.20;93.40;;;;;;4972826;28;20547;-74
2023/07/26 07:42:50;;;;;;;2.75;0.50;;;25.40;93.90;;;;;;4967636;28;20035;-73
2023/07/26 07:45:16;;;;;;;1.25;0.60;;;26.20;93.20;;;;;;4976611;28;20030;-73
2023/07/26 07:47:41;;;;;;;1.55;0.60;;;26.60;92.70;;;;;;4967828;28;20030;-73
2023/07/26 07:50:07;;;;;;;3.53;0.57;;;26.90;92.80;;;;;;4973449;28;20499;-73
2023/07/26 07:52:33;;;;;;;1.02;0.45;;;27.20;91.40;;;;;;4972054;28;20038;-73
2023/07/26 07:54:59;;;;;;;2.00;1.08;;;27.20;91.70;;;;;;4971922;28;20097;-74
2023/07/26 07:57:24;;;;;;;2.70;0.50;;;27.40;91.40;;;;;;4974908;28;20593;-73
2023/07/26 07:59:50;;;;;;;3.17;0.35;;;27.10;91.40;;;;;;4980006;28;20066;-74
2023/07/26 08:02:16;;;;;;;1.20;0.40;;;26.00;92.80;;;;;;4978884;28;20825;-74
2023/07/26 08:04:41;;;;;;;2.72;0.50;;;26.30;91.90;;;;;;4983530;28;20022;-73
2023/07/26 08:07:07;;;;;;;2.83;0.55;;;25.90;91.50;;;;;;4970266;28;20473;-74
2023/07/26 08:09:33;;;;;;;1.35;0.35;;;24.20;93.70;;;;;;4972677;28;20039;-74
2023/07/26 08:11:58;;;;;;;4.60;0.85;;;24.40;93.70;;;;;;4966275;28;20109;-74
2023/07/26 08:14:24;;;;;;;1.15;0.50;;;24.60;93.10;;;;;;4971912;28;20105;-74
2023/07/26 08:16:50;;;;;;;3.13;0.55;;;25.00;93.30;;;;;;4964764;28;20114;-74
2023/07/26 08:19:16;;;;;;;1.83;0.65;;;24.20;93.30;;;;;;4965791;28;20034;-74
2023/07/26 08:21:41;;;;;;;2.78;0.52;;;24.10;94.40;;;;;;4965691;28;20122;-74
2023/07/26 08:24:07;;;;;;;5.88;0.88;;;23.60;94.40;;;;;;4975483;28;20030;-73
2023/07/26 08:26:32;;;;;;;0.88;0.45;;;22.70;95.80;;;;;;4968521;28;20041;-74
2023/07/26 08:28:58;;;;;;;3.58;0.57;;;22.20;95.80;;;;;;4973767;28;20073;-75
2023/07/26 08:31:24;;;;;;;1.83;0.57;;;21.50;97.10;;;;;;4974421;28;20034;-74
2023/07/26 08:33:49;;;;;;;1.48;0.60;;;21.80;97.30;;;;;;4975204;28;20030;-74
2023/07/26 08:36:15;;;;;;;1.75;0.55;;;21.60;97.10;;;;;;4975707;28;20033;-75
2023/07/26 08:38:41;;;;;;;2.13;0.60;;;21.70;97.20;;;;;;4968512;28;20058;-75
2023/07/26 08:41:07;;;;;;;2.75;0.50;;;21.80;97.40;;;;;;4972711;28;21406;-75
2023/07/26 08:43:37;;;;;;;3.47;0.70;;;21.80;98.10;;;;;;4972111;28;20377;-75
2023/07/26 08:46:05;;;;;;;0.82;0.50;;;22.00;96.70;;;;;;4971510;28;20508;-74
2023/07/26 08:48:32;;;;;;;2.13;0.60;;;22.10;98.20;;;;;;4966362;28;20512;-77
2023/07/26 08:51:00;;;;;;;1.83;0.52;;;21.80;97.20;;;;;;4973695;28;20070;-74
2023/07/26 08:53:27;;;;;;;1.35;0.60;;;22.10;98.10;;;;;;4972051;28;20022;-75
2023/07/26 08:55:53;;;;;;;4.72;0.40;;;22.20;97.70;;;;;;4971533;28;20366;-74
2023/07/26 08:58:19;;;;;;;3.72;0.45;;;22.30;97.00;;;;;;4971186;28;20096;-74
2023/07/26 09:00:45;;;;;;;2.55;0.65;;;22.50;97.70;;;;;;4977028;28;20026;-75
2023/07/26 09:03:11;;;;;;;1.85;0.40;;;22.60;96.40;;;;;;4975216;28;20039;-74
2023/07/26 09:05:37;;;;;;;3.05;0.50;;;22.30;95.90;;;;;;4964654;28;20446;-77
2023/07/26 09:08:03;;;;;;;1.55;0.57;;;22.60;95.90;;;;;;4965298;28;20031;-74
2023/07/26 09:10:31;;;;;;;1.85;0.73;;;22.60;95.70;;;;;;4966186;28;20470;-74
2023/07/26 09:13:14;;;;;;;1.88;0.50;;;22.90;96.00;;;;;;4968398;28;20023;-73
2023/07/26 09:15:42;;;;;;;2.50;0.50;;;23.10;95.70;;;;;;4973293;28;20125;-73
2023/07/26 09:18:12;;;;;;;0.47;0.20;;;23.20;96.00;;;;;;4976136;28;20093;-74
2023/07/26 09:20:37;;;;;;;1.27;0.40;;;23.30;95.30;;;;;;4976134;28;20022;-74
2023/07/26 09:23:04;;;;;;;0.35;0.20;;;23.20;94.80;;;;;;4966839;28;20054;-75
2023/07/26 09:25:35;;;;;;;1.52;0.50;;;23.50;94.60;;;;;;4973695;28;20121;-73
2023/07/26 09:28:02;;;;;;;0.77;0.30;;;23.50;93.80;;;;;;4966601;28;20050;-74
2023/07/26 09:30:28;;;;;;;2.10;0.30;;;23.50;95.00;;;;;;4971659;28;20062;-74
2023/07/26 09:32:58;;;;;;;0.90;0.10;;;23.10;93.10;;;;;;4982226;28;20037;-74
2023/07/26 09:35:24;;;;;;;2.60;0.50;;;23.20;93.40;;;;;;4977475;28;20054;-74
2023/07/26 09:37:50;;;;;;;0.82;0.40;;;23.70;93.30;;;;;;4967801;28;20081;-75
2023/07/26 09:40:16;;;;;;;2.60;0.30;;;23.70;92.90;;;;;;4979756;28;20117;-74
2023/07/26 09:42:47;;;;;;;1.38;0.20;;;23.80;92.50;;;;;;4970905;28;20117;-74
2023/07/26 09:45:20;;;;;;;0.80;0.20;;;23.80;92.60;;;;;;4980271;28;20053;-74
2023/07/26 09:47:46;;;;;;;0.65;0.20;;;24.10;93.70;;;;;;4972690;28;20449;-75
2023/07/26 09:50:29;;;;;;;1.25;0.30;;;24.10;92.00;;;;;;4972123;28;20046;-74
2023/07/26 09:52:55;;;;;;;1.35;0.15;;;23.90;91.20;;;;;;4965417;28;20031;-74
2023/07/26 09:55:28;;;;;;;0.28;0.08;;;24.20;92.40;;;;;;4963005;28;20026;-73
2023/07/26 09:57:56;;;;;;;0.95;0.20;;;24.40;92.10;;;;;;4976905;28;20037;-73
2023/07/26 10:00:24;;;;;;;0.38;0.10;;;24.50;91.70;;;;;;4965799;28;20037;-72
2023/07/26 10:02:58;;;;;;;1.42;0.20;;;24.40;88.20;;;;;;4979706;28;20027;-73
2023/07/26 10:05:30;;;;;;;1.05;0.40;;;24.40;90.80;;;;;;4972240;28;20035;-76
2023/07/26 10:07:56;;;;;;;0.45;0.10;;;24.60;90.80;;;;;;4971321;28;20495;-73
2023/07/26 10:10:22;;;;;;;2.90;0.40;;;24.60;88.70;;;;;;4967328;28;20054;-72
2023/07/26 10:12:52;;;;;;;0.40;0.15;;;24.40;87.00;;;;;;4973522;28;20076;-73
2023/07/26 10:15:21;;;;;;;0.40;0.15;;;24.70;92.50;;;;;;4967901;28;20118;-73
2023/07/26 10:17:47;;;;;;;0.25;0.20;;;25.20;90.90;;;;;;4969873;28;20676;-73
2023/07/26 10:20:14;;;;;;;1.15;0.40;;;25.40;89.30;;;;;;4964013;28;20651;-72
2023/07/26 10:22:42;;;;;;;1.33;0.30;;;25.50;88.50;;;;;;4975524;28;20030;-73
2023/07/26 10:25:08;;;;;;;0.30;0.10;;;25.70;89.00;;;;;;4966921;28;20038;-73
2023/07/26 10:27:35;;;;;;;0.32;0.15;;;25.80;90.30;;;;;;4977172;28;20039;-72
2023/07/26 10:30:01;;;;;;;1.75;0.38;;;25.60;87.20;;;;;;4965496;28;20041;-73
2023/07/26 10:32:27;;;;;;;0.68;0.32;;;25.70;88.10;;;;;;4965811;28;20093;-73
2023/07/26 10:34:54;;;;;;;1.23;0.47;;;25.90;89.30;;;;;;4971149;28;20027;-73
2023/07/26 10:37:20;;;;;;;1.42;0.57;;;25.80;86.50;;;;;;4973652;28;20066;-73
2023/07/26 10:39:45;;;;;;;2.33;0.30;;;25.90;86.00;;;;;;4967951;28;20058;-76
2023/07/26 10:42:29;;;;;;;2.28;0.40;;;25.60;85.30;;;;;;4969113;28;20045;-73
2023/07/26 10:44:57;;;;;;;1.20;0.37;;;25.90;87.20;;;;;;4965101;28;20022;-74
2023/07/26 10:47:23;;;;;;;2.05;0.30;;;25.50;85.90;;;;;;4976722;28;20053;-73
2023/07/26 10:49:49;;;;;;;0.73;0.30;;;25.10;87.40;;;;;;4973908;28;20611;-73
2023/07/26 10:52:16;;;;;;;1.02;0.35;;;24.80;87.20;;;;;;4968175;28;20043;-73
2023/07/26 10:54:46;;;;;;;0.57;0.20;;;24.80;89.50;;;;;;4967655;28;20117;-73
2023/07/26 10:57:15;;;;;;;1.83;0.20;;;25.40;87.70;;;;;;4965894;28;20088;-73
2023/07/26 11:00:04;;;;;;;0.65;0.35;;;25.40;83.30;;;;;;4962632;28;20097;-73
2023/07/26 11:02:59;;;;;;;0.43;0.25;;;25.00;84.70;;;;;;4964232;28;20019;-76
2023/07/26 11:05:26;;;;;;;1.08;0.40;;;24.80;86.80;;;;;;4968674;28;20026;-73
2023/07/26 11:08:06;;;;;;;0.43;0.28;;;24.60;84.70;;;;;;4967594;28;20093;-73
2023/07/26 11:10:49;;;;;;;1.27;0.35;;;24.90;89.80;;;;;;4965403;28;20053;-73
2023/07/26 11:13:18;;;;;;;0.63;0.20;;;25.20;87.40;;;;;;4972465;28;20066;-76
2023/07/26 11:15:45;;;;;;;0.70;0.43;;;25.50;82.60;;;;;;4972246;28;20034;-73
2023/07/26 11:18:14;;;;;;;0.77;0.30;;;25.60;89.90;;;;;;4973138;28;20077;-73
2023/07/26 11:20:44;;;;;;;1.23;0.40;;;25.70;87.60;;;;;;4976385;28;20112;-72
2023/07/26 11:23:22;;;;;;;0.52;0.25;;;25.70;86.30;;;;;;4970003;28;20034;-72
2023/07/26 11:25:50;;;;;;;0.30;0.20;;;25.20;86.30;;;;;;4972285;28;20701;-73
2023/07/26 11:28:17;;;;;;;1.25;0.40;;;25.20;85.00;;;;;;4966040;28;20065;-73
2023/07/26 11:30:51;;;;;;;2.25;0.28;;;25.20;85.40;;;;;;4965191;28;20034;-72
2023/07/26 11:33:34;;;;;;;1.25;0.30;;;25.20;86.30;;;;;;4975260;28;20026;-75
2023/07/26 11:36:01;;;;;;;1.27;0.43;;;25.40;85.00;;;;;;4973816;28;20034;-74
2023/07/26 11:38:27;;;;;;;1.85;0.50;;;25.40;83.40;;;;;;4981324;28;20037;-76
2023/07/26 11:40:56;;;;;;;1.35;0.30;;;25.20;86.00;;;;;;4968056;28;20105;-73
2023/07/26 11:43:23;;;;;;;0.93;0.50;;;25.00;81.90;;;;;;4971905;28;20109;-75
2023/07/26 11:45:49;;;;;;;1.88;0.65;;;25.20;86.30;;;;;;4970113;28;20137;-74
2023/07/26 11:48:15;;;;;;;0.60;0.22;;;25.80;90.50;;;;;;4969953;28;20110;-73
2023/07/26 11:50:41;;;;;;;1.15;0.50;;;26.10;88.20;;;;;;4973984;28;20574;-75
2023/07/26 11:53:09;;;;;;;1.55;0.60;;;25.90;86.70;;;;;;4969774;28;20117;-74
2023/07/26 11:55:40;;;;;;;2.05;0.70;;;25.80;86.50;;;;;;4974073;28;20939;-74
2023/07/26 11:58:10;;;;;;;1.15;0.40;;;25.80;89.20;;;;;;4974563;28;20042;-74
2023/07/26 12:00:49;;;;;;;1.15;0.40;;;25.90;90.20;;;;;;4964725;28;20030;-73
2023/07/26 12:03:15;;;;;;;1.40;0.50;;;25.80;88.70;;;;;;4968791;28;20031;-73
2023/07/26 12:05:44;;;;;;;1.13;0.40;;;26.30;87.50;;;;;;4979749;28;20027;-74
2023/07/26 12:08:10;;;;;;;2.10;0.73;;;26.50;88.30;;;;;;4969159;28;20431;-74
2023/07/26 12:10:42;;;;;;;2.28;0.88;;;26.80;89.00;;;;;;4975304;28;20054;-77
2023/07/26 12:13:18;;;;;;;1.27;0.52;;;27.10;84.50;;;;;;4968366;28;20058;-74
2023/07/26 12:15:55;;;;;;;0.98;0.55;;;27.00;85.40;;;;;;4968641;28;20081;-74
2023/07/26 12:18:22;;;;;;;1.83;0.57;;;27.00;81.90;;;;;;4970166;28;20034;-74
2023/07/26 12:21:06;;;;;;;1.33;0.60;;;26.70;80.60;;;;;;4965144;28;20174;-76
2023/07/26 12:23:52;;;;;;;0.90;0.45;;;26.90;86.00;;;;;;4973810;28;20030;-74
2023/07/26 12:26:21;;;;;;;0.88;0.40;;;27.20;84.90;;;;;;4977257;28;20338;-74
2023/07/26 12:28:47;;;;;;;3.15;0.60;;;27.00;80.60;;;;;;4965355;28;20035;-73
2023/07/26 12:31:39;;;;;;;2.65;0.80;;;26.80;79.90;;;;;;4970003;28;20141;-77
2023/07/26 12:34:06;;;;;;;3.08;0.70;;;26.90;82.80;;;;;;4971192;28;20053;-74
2023/07/26 12:36:56;;;;;;;2.90;0.85;;;26.80;81.60;;;;;;4968410;28;20121;-77
2023/07/26 12:39:22;;;;;;;1.92;0.60;;;26.90;81.80;;;;;;4973834;28;20022;-75
2023/07/26 12:41:48;;;;;;;1.27;0.60;;;26.30;79.70;;;;;;4969429;28;20030;-73
2023/07/26 12:44:15;;;;;;;1.70;0.70;;;26.40;80.00;;;;;;4977031;28;20404;-73
2023/07/26 12:46:42;;;;;;;3.17;0.70;;;26.70;85.30;;;;;;4976594;28;20503;-74
2023/07/26 12:49:10;;;;;;;0.77;0.45;;;26.60;78.80;;;;;;4973871;28;20038;-73